sensor_id;sensor_type;location;lat;lon;timestamp;temperature;humidity
16479;DHT22;8350;52.316;10.530;2022-09-17T00:00:43;11.50;99.90
16479;DHT22;8350;52.316;10.530;2022-09-17T00:03:12;11.60;99.90
16479;DHT22;8350;52.316;10.530;2022-09-17T00:05:39;11.60;99.90
16479;DHT22;8350;52.316;10.530;2022-09-17T00:08:08;11.60;99.90
16479;DHT22;8350;52.316;10.530;2022-09-17T00:10:38;11.60;99.90
16479;DHT22;8350;52.316;10.530;2022-09-17T00:13:08;11.60;99.90
16479;DHT22;8350;52.316;10.530;2022-09-17T00:15:39;11.60;99.90
16479;DHT22;8350;52.316;10.530;2022-09-17T00:18:06;11.60;99.90
16479;DHT22;8350;52.316;10.530;2022-09-17T00:20:37;11.60;99.90
16479;DHT22;8350;52.316;10.530;2022-09-17T00:23:05;11.60;99.90
16479;DHT22;8350;52.316;10.530;2022-09-17T00:25:33;11.60;99.90
16479;DHT22;8350;52.316;10.530;2022-09-17T00:28:00;11.60;99.90
16479;DHT22;8350;52.316;10.530;2022-09-17T00:30:29;11.60;99.90
16479;DHT22;8350;52.316;10.530;2022-09-17T00:32:56;11.60;99.90
16479;DHT22;8350;52.316;10.530;2022-09-17T00:35:23;11.60;99.90
16479;DHT22;8350;52.316;10.530;2022-09-17T00:37:51;11.60;99.90
16479;DHT22;8350;52.316;10.530;2022-09-17T00:40:19;11.70;99.90
16479;DHT22;8350;52.316;10.530;2022-09-17T00:42:46;11.60;99.90
16479;DHT22;8350;52.316;10.530;2022-09-17T00:45:13;11.60;99.90
16479;DHT22;8350;52.316;10.530;2022-09-17T00:47:44;11.60;99.90
16479;DHT22;8350;52.316;10.530;2022-09-17T00:50:15;11.60;99.90
16479;DHT22;8350;52.316;10.530;2022-09-17T00:52:45;11.70;99.90
16479;DHT22;8350;52.316;10.530;2022-09-17T00:55:17;11.70;99.90
16479;DHT22;8350;52.316;10.530;2022-09-17T00:57:45;11.70;99.90
16479;DHT22;8350;52.316;10.530;2022-09-17T01:00:15;11.70;99.90
16479;DHT22;8350;52.316;10.530;2022-09-17T01:02:44;11.70;99.90
16479;DHT22;8350;52.316;10.530;2022-09-17T01:05:12;11.60;99.90
16479;DHT22;8350;52.316;10.530;2022-09-17T01:08:00;11.70;99.90
16479;DHT22;8350;52.316;10.530;2022-09-17T01:10:45;11.60;99.90
16479;DHT22;8350;52.316;10.530;2022-09-17T01:13:23;11.60;99.90
16479;DHT22;8350;52.316;10.530;2022-09-17T01:15:58;11.60;99.90
16479;DHT22;8350;52.316;10.530;2022-09-17T01:18:37;11.60;99.90
16479;DHT22;8350;52.316;10.530;2022-09-17T01:24:39;11.70;99.90
16479;DHT22;8350;52.316;10.530;2022-09-17T01:27:40;11.60;99.90
16479;DHT22;8350;52.316;10.530;2022-09-17T01:30:18;11.60;99.90
16479;DHT22;8350;52.316;10.530;2022-09-17T01:32:52;11.60;99.90
16479;DHT22;8350;52.316;10.530;2022-09-17T01:35:30;11.60;99.90
16479;DHT22;8350;52.316;10.530;2022-09-17T01:38:03;11.60;99.90
16479;DHT22;8350;52.316;10.530;2022-09-17T01:40:37;11.60;99.90
16479;DHT22;8350;52.316;10.530;2022-09-17T01:43:08;11.60;99.90
16479;DHT22;8350;52.316;10.530;2022-09-17T01:45:40;11.60;99.90
16479;DHT22;8350;52.316;10.530;2022-09-17T01:48:12;11.60;99.90
16479;DHT22;8350;52.316;10.530;2022-09-17T01:50:48;11.60;99.90
16479;DHT22;8350;52.316;10.530;2022-09-17T01:53:17;11.60;99.90
16479;DHT22;8350;52.316;10.530;2022-09-17T01:55:45;11.50;99.90
16479;DHT22;8350;52.316;10.530;2022-09-17T01:58:17;11.50;99.90
16479;DHT22;8350;52.316;10.530;2022-09-17T02:00:49;11.60;99.90
16479;DHT22;8350;52.316;10.530;2022-09-17T02:03:20;11.50;99.90
16479;DHT22;8350;52.316;10.530;2022-09-17T02:05:53;11.50;99.90
16479;DHT22;8350;52.316;10.530;2022-09-17T02:08:24;11.50;99.90
16479;DHT22;8350;52.316;10.530;2022-09-17T02:10:57;11.50;99.90
16479;DHT22;8350;52.316;10.530;2022-09-17T02:13:30;11.40;99.90
16479;DHT22;8350;52.316;10.530;2022-09-17T02:16:03;11.50;99.90
16479;DHT22;8350;52.316;10.530;2022-09-17T02:18:36;11.50;99.90
16479;DHT22;8350;52.316;10.530;2022-09-17T02:21:07;11.40;99.90
16479;DHT22;8350;52.316;10.530;2022-09-17T02:23:43;11.50;99.90
16479;DHT22;8350;52.316;10.530;2022-09-17T02:26:13;11.50;99.90
16479;DHT22;8350;52.316;10.530;2022-09-17T02:28:46;11.50;99.90
16479;DHT22;8350;52.316;10.530;2022-09-17T02:31:14;11.40;99.90
16479;DHT22;8350;52.316;10.530;2022-09-17T02:33:45;11.40;99.90
16479;DHT22;8350;52.316;10.530;2022-09-17T02:36:13;11.40;99.90
16479;DHT22;8350;52.316;10.530;2022-09-17T02:38:43;11.50;99.90
16479;DHT22;8350;52.316;10.530;2022-09-17T02:41:13;11.50;99.90
16479;DHT22;8350;52.316;10.530;2022-09-17T02:43:49;11.40;99.90
16479;DHT22;8350;52.316;10.530;2022-09-17T02:46:37;11.40;99.90
16479;DHT22;8350;52.316;10.530;2022-09-17T02:49:23;11.50;99.90
16479;DHT22;8350;52.316;10.530;2022-09-17T02:52:06;11.50;99.90
16479;DHT22;8350;52.316;10.530;2022-09-17T02:54:41;11.40;99.90
16479;DHT22;8350;52.316;10.530;2022-09-17T02:57:16;11.40;99.90
16479;DHT22;8350;52.316;10.530;2022-09-17T02:59:52;11.40;99.90
16479;DHT22;8350;52.316;10.530;2022-09-17T03:02:25;11.40;99.90
16479;DHT22;8350;52.316;10.530;2022-09-17T03:04:55;11.40;99.90
16479;DHT22;8350;52.316;10.530;2022-09-17T03:07:23;11.30;99.90
16479;DHT22;8350;52.316;10.530;2022-09-17T03:09:51;11.30;99.90
16479;DHT22;8350;52.316;10.530;2022-09-17T03:12:18;11.30;99.90
16479;DHT22;8350;52.316;10.530;2022-09-17T03:14:45;11.30;99.90
16479;DHT22;8350;52.316;10.530;2022-09-17T03:17:12;11.20;99.90
16479;DHT22;8350;52.316;10.530;2022-09-17T03:19:39;11.20;99.90
16479;DHT22;8350;52.316;10.530;2022-09-17T03:22:10;11.20;99.90
16479;DHT22;8350;52.316;10.530;2022-09-17T03:24:37;11.20;99.90
16479;DHT22;8350;52.316;10.530;2022-09-17T03:27:04;11.20;99.90
16479;DHT22;8350;52.316;10.530;2022-09-17T03:29:32;11.20;99.90
16479;DHT22;8350;52.316;10.530;2022-09-17T03:31:59;11.20;99.90
16479;DHT22;8350;52.316;10.530;2022-09-17T03:34:26;11.30;99.90
16479;DHT22;8350;52.316;10.530;2022-09-17T03:36:53;11.20;99.90
16479;DHT22;8350;52.316;10.530;2022-09-17T03:39:22;11.20;99.90
16479;DHT22;8350;52.316;10.530;2022-09-17T03:41:49;11.30;99.90
16479;DHT22;8350;52.316;10.530;2022-09-17T03:44:16;11.20;99.90
16479;DHT22;8350;52.316;10.530;2022-09-17T03:46:44;11.20;99.90
16479;DHT22;8350;52.316;10.530;2022-09-17T03:49:11;11.20;99.90
16479;DHT22;8350;52.316;10.530;2022-09-17T03:51:38;11.20;99.90
16479;DHT22;8350;52.316;10.530;2022-09-17T03:54:05;11.20;99.90
16479;DHT22;8350;52.316;10.530;2022-09-17T03:56:34;11.20;99.90
16479;DHT22;8350;52.316;10.530;2022-09-17T03:59:01;11.20;99.90
16479;DHT22;8350;52.316;10.530;2022-09-17T04:01:28;11.10;99.90
16479;DHT22;8350;52.316;10.530;2022-09-17T04:03:55;11.10;99.90
16479;DHT22;8350;52.316;10.530;2022-09-17T04:06:22;11.10;99.90
16479;DHT22;8350;52.316;10.530;2022-09-17T04:08:49;11.10;99.90
16479;DHT22;8350;52.316;10.530;2022-09-17T04:11:16;11.10;99.90
16479;DHT22;8350;52.316;10.530;2022-09-17T04:13:47;11.00;99.90
16479;DHT22;8350;52.316;10.530;2022-09-17T04:16:13;11.00;99.90
16479;DHT22;8350;52.316;10.530;2022-09-17T04:18:40;11.00;99.90
16479;DHT22;8350;52.316;10.530;2022-09-17T04:21:07;11.00;99.90
16479;DHT22;8350;52.316;10.530;2022-09-17T04:23:34;11.10;99.90
16479;DHT22;8350;52.316;10.530;2022-09-17T04:26:01;11.10;99.90
16479;DHT22;8350;52.316;10.530;2022-09-17T04:28:29;11.10;99.90
16479;DHT22;8350;52.316;10.530;2022-09-17T04:31:00;11.10;99.90
16479;DHT22;8350;52.316;10.530;2022-09-17T04:33:27;11.10;99.90
16479;DHT22;8350;52.316;10.530;2022-09-17T04:35:54;11.10;99.90
16479;DHT22;8350;52.316;10.530;2022-09-17T04:38:21;11.00;99.90
16479;DHT22;8350;52.316;10.530;2022-09-17T04:40:48;11.00;99.90
16479;DHT22;8350;52.316;10.530;2022-09-17T04:43:16;11.00;99.90
16479;DHT22;8350;52.316;10.530;2022-09-17T04:45:44;11.00;99.90
16479;DHT22;8350;52.316;10.530;2022-09-17T04:48:13;11.00;99.90
16479;DHT22;8350;52.316;10.530;2022-09-17T04:50:40;11.00;99.90
16479;DHT22;8350;52.316;10.530;2022-09-17T04:53:07;10.90;99.90
16479;DHT22;8350;52.316;10.530;2022-09-17T04:55:34;10.90;99.90
16479;DHT22;8350;52.316;10.530;2022-09-17T04:58:01;10.90;99.90
16479;DHT22;8350;52.316;10.530;2022-09-17T05:00:29;10.80;99.90
16479;DHT22;8350;52.316;10.530;2022-09-17T05:02:55;10.80;99.90
16479;DHT22;8350;52.316;10.530;2022-09-17T05:05:24;10.80;99.90
16479;DHT22;8350;52.316;10.530;2022-09-17T05:07:51;10.80;99.90
16479;DHT22;8350;52.316;10.530;2022-09-17T05:10:20;10.80;99.90
16479;DHT22;8350;52.316;10.530;2022-09-17T05:12:48;10.80;99.90
16479;DHT22;8350;52.316;10.530;2022-09-17T05:15:16;10.80;99.90
16479;DHT22;8350;52.316;10.530;2022-09-17T05:17:43;10.90;99.90
16479;DHT22;8350;52.316;10.530;2022-09-17T05:20:10;10.90;99.90
16479;DHT22;8350;52.316;10.530;2022-09-17T05:22:42;10.90;99.90
16479;DHT22;8350;52.316;10.530;2022-09-17T05:25:09;11.00;99.90
16479;DHT22;8350;52.316;10.530;2022-09-17T05:27:37;11.00;99.90
16479;DHT22;8350;52.316;10.530;2022-09-17T05:30:06;11.10;99.90
16479;DHT22;8350;52.316;10.530;2022-09-17T05:32:34;11.10;99.90
16479;DHT22;8350;52.316;10.530;2022-09-17T05:35:01;11.10;99.90
16479;DHT22;8350;52.316;10.530;2022-09-17T05:37:28;11.10;99.90
16479;DHT22;8350;52.316;10.530;2022-09-17T05:39:56;11.00;99.90
16479;DHT22;8350;52.316;10.530;2022-09-17T05:42:23;11.00;99.90
16479;DHT22;8350;52.316;10.530;2022-09-17T05:44:50;11.00;99.90
16479;DHT22;8350;52.316;10.530;2022-09-17T05:47:17;11.00;99.90
16479;DHT22;8350;52.316;10.530;2022-09-17T05:49:44;11.00;99.90
16479;DHT22;8350;52.316;10.530;2022-09-17T05:52:11;11.00;99.90
16479;DHT22;8350;52.316;10.530;2022-09-17T05:54:38;10.90;99.90
16479;DHT22;8350;52.316;10.530;2022-09-17T05:57:07;10.90;99.90
16479;DHT22;8350;52.316;10.530;2022-09-17T05:59:34;11.00;99.90
16479;DHT22;8350;52.316;10.530;2022-09-17T06:02:01;11.00;99.90
16479;DHT22;8350;52.316;10.530;2022-09-17T06:04:30;11.00;99.90
16479;DHT22;8350;52.316;10.530;2022-09-17T06:06:57;11.00;99.90
16479;DHT22;8350;52.316;10.530;2022-09-17T06:09:24;11.00;99.90
16479;DHT22;8350;52.316;10.530;2022-09-17T06:11:51;11.00;99.90
16479;DHT22;8350;52.316;10.530;2022-09-17T06:14:20;11.00;99.90
16479;DHT22;8350;52.316;10.530;2022-09-17T06:16:46;11.00;99.90
16479;DHT22;8350;52.316;10.530;2022-09-17T06:19:13;11.00;99.90
16479;DHT22;8350;52.316;10.530;2022-09-17T06:21:40;11.00;99.90
16479;DHT22;8350;52.316;10.530;2022-09-17T06:24:08;11.10;99.90
16479;DHT22;8350;52.316;10.530;2022-09-17T06:26:35;11.10;99.90
16479;DHT22;8350;52.316;10.530;2022-09-17T06:29:02;11.10;99.90
16479;DHT22;8350;52.316;10.530;2022-09-17T06:31:34;11.10;99.90
16479;DHT22;8350;52.316;10.530;2022-09-17T06:34:01;11.20;99.90
16479;DHT22;8350;52.316;10.530;2022-09-17T06:36:30;11.20;99.90
16479;DHT22;8350;52.316;10.530;2022-09-17T06:38:57;11.30;99.90
16479;DHT22;8350;52.316;10.530;2022-09-17T06:41:24;11.30;99.90
16479;DHT22;8350;52.316;10.530;2022-09-17T06:43:51;11.40;99.90
16479;DHT22;8350;52.316;10.530;2022-09-17T06:46:18;11.50;99.90
16479;DHT22;8350;52.316;10.530;2022-09-17T06:48:47;11.60;99.90
16479;DHT22;8350;52.316;10.530;2022-09-17T06:51:14;11.60;99.90
16479;DHT22;8350;52.316;10.530;2022-09-17T06:53:42;11.60;99.90
16479;DHT22;8350;52.316;10.530;2022-09-17T06:56:09;11.60;99.90
16479;DHT22;8350;52.316;10.530;2022-09-17T06:58:36;11.70;99.90
16479;DHT22;8350;52.316;10.530;2022-09-17T07:01:05;11.80;99.90
16479;DHT22;8350;52.316;10.530;2022-09-17T07:03:32;11.80;99.90
16479;DHT22;8350;52.316;10.530;2022-09-17T07:06:01;11.90;99.90
16479;DHT22;8350;52.316;10.530;2022-09-17T07:08:28;12.00;99.90
16479;DHT22;8350;52.316;10.530;2022-09-17T07:10:55;12.10;99.90
16479;DHT22;8350;52.316;10.530;2022-09-17T07:13:23;12.20;99.90
16479;DHT22;8350;52.316;10.530;2022-09-17T07:15:54;12.30;99.90
16479;DHT22;8350;52.316;10.530;2022-09-17T07:18:21;12.30;99.90
16479;DHT22;8350;52.316;10.530;2022-09-17T07:20:55;12.30;99.90
16479;DHT22;8350;52.316;10.530;2022-09-17T07:23:25;12.30;99.90
16479;DHT22;8350;52.316;10.530;2022-09-17T07:25:53;12.40;99.90
16479;DHT22;8350;52.316;10.530;2022-09-17T07:28:20;12.40;99.90
16479;DHT22;8350;52.316;10.530;2022-09-17T07:30:48;12.30;99.90
16479;DHT22;8350;52.316;10.530;2022-09-17T07:33:15;12.20;99.90
16479;DHT22;8350;52.316;10.530;2022-09-17T07:35:42;12.20;99.90
16479;DHT22;8350;52.316;10.530;2022-09-17T07:38:09;12.20;99.90
16479;DHT22;8350;52.316;10.530;2022-09-17T07:40:38;12.10;99.90
16479;DHT22;8350;52.316;10.530;2022-09-17T07:43:05;12.00;99.90
16479;DHT22;8350;52.316;10.530;2022-09-17T07:45:32;12.10;99.90
16479;DHT22;8350;52.316;10.530;2022-09-17T07:47:59;12.50;99.90
16479;DHT22;8350;52.316;10.530;2022-09-17T07:50:26;12.80;99.90
16479;DHT22;8350;52.316;10.530;2022-09-17T07:52:53;13.00;99.90
16479;DHT22;8350;52.316;10.530;2022-09-17T07:55:20;13.20;99.90
16479;DHT22;8350;52.316;10.530;2022-09-17T07:57:51;13.40;99.90
16479;DHT22;8350;52.316;10.530;2022-09-17T08:00:18;13.50;99.90
16479;DHT22;8350;52.316;10.530;2022-09-17T08:02:52;13.50;99.90
16479;DHT22;8350;52.316;10.530;2022-09-17T08:05:19;13.70;99.90
16479;DHT22;8350;52.316;10.530;2022-09-17T08:07:48;13.80;99.90
16479;DHT22;8350;52.316;10.530;2022-09-17T08:10:16;13.90;50.50
16479;DHT22;8350;52.316;10.530;2022-09-17T08:12:46;14.00;22.00
16479;DHT22;8350;52.316;10.530;2022-09-17T08:15:15;14.10;19.70
16479;DHT22;8350;52.316;10.530;2022-09-17T08:17:42;14.20;19.30
16479;DHT22;8350;52.316;10.530;2022-09-17T08:20:10;14.30;2.70
16479;DHT22;8350;52.316;10.530;2022-09-17T08:22:37;14.40;5.00
16479;DHT22;8350;52.316;10.530;2022-09-17T08:25:05;14.40;1.00
16479;DHT22;8350;52.316;10.530;2022-09-17T08:27:35;14.20;1.00
16479;DHT22;8350;52.316;10.530;2022-09-17T08:30:04;14.30;9.50
16479;DHT22;8350;52.316;10.530;2022-09-17T08:32:33;14.50;1.00
16479;DHT22;8350;52.316;10.530;2022-09-17T08:35:00;14.50;1.00
16479;DHT22;8350;52.316;10.530;2022-09-17T08:37:27;14.70;1.00
16479;DHT22;8350;52.316;10.530;2022-09-17T08:39:55;14.80;1.00
16479;DHT22;8350;52.316;10.530;2022-09-17T08:42:26;14.90;1.00
16479;DHT22;8350;52.316;10.530;2022-09-17T08:44:57;15.00;1.00
16479;DHT22;8350;52.316;10.530;2022-09-17T08:47:26;15.10;1.00
16479;DHT22;8350;52.316;10.530;2022-09-17T08:49:58;15.20;1.00
16479;DHT22;8350;52.316;10.530;2022-09-17T08:52:51;15.10;1.00
16479;DHT22;8350;52.316;10.530;2022-09-17T08:55:29;15.20;1.00
16479;DHT22;8350;52.316;10.530;2022-09-17T08:58:07;15.20;1.00
16479;DHT22;8350;52.316;10.530;2022-09-17T09:00:47;15.40;1.00
16479;DHT22;8350;52.316;10.530;2022-09-17T09:03:26;15.40;1.00
16479;DHT22;8350;52.316;10.530;2022-09-17T09:05:57;15.30;1.00
16479;DHT22;8350;52.316;10.530;2022-09-17T09:08:30;15.30;1.00
16479;DHT22;8350;52.316;10.530;2022-09-17T09:11:02;15.20;1.00
16479;DHT22;8350;52.316;10.530;2022-09-17T09:13:32;15.30;1.00
16479;DHT22;8350;52.316;10.530;2022-09-17T09:16:04;15.40;1.00
16479;DHT22;8350;52.316;10.530;2022-09-17T09:18:35;15.50;1.00
16479;DHT22;8350;52.316;10.530;2022-09-17T09:21:14;15.50;1.00
16479;DHT22;8350;52.316;10.530;2022-09-17T09:23:47;15.60;1.00
16479;DHT22;8350;52.316;10.530;2022-09-17T09:26:18;15.80;1.00
16479;DHT22;8350;52.316;10.530;2022-09-17T09:29:06;15.80;1.00
16479;DHT22;8350;52.316;10.530;2022-09-17T09:31:50;15.50;1.00
16479;DHT22;8350;52.316;10.530;2022-09-17T09:34:25;15.10;1.00
16479;DHT22;8350;52.316;10.530;2022-09-17T09:37:04;15.20;1.00
16479;DHT22;8350;52.316;10.530;2022-09-17T09:39:37;14.90;1.00
16479;DHT22;8350;52.316;10.530;2022-09-17T09:42:10;15.00;1.00
16479;DHT22;8350;52.316;10.530;2022-09-17T09:44:40;15.20;1.00
16479;DHT22;8350;52.316;10.530;2022-09-17T09:47:20;15.30;1.00
16479;DHT22;8350;52.316;10.530;2022-09-17T09:50:07;15.40;1.00
16479;DHT22;8350;52.316;10.530;2022-09-17T09:52:53;15.60;1.00
16479;DHT22;8350;52.316;10.530;2022-09-17T09:55:54;15.40;1.00
16479;DHT22;8350;52.316;10.530;2022-09-17T09:58:29;15.10;1.00
16479;DHT22;8350;52.316;10.530;2022-09-17T10:00:57;14.90;1.00
16479;DHT22;8350;52.316;10.530;2022-09-17T10:03:27;14.90;1.00
16479;DHT22;8350;52.316;10.530;2022-09-17T10:05:57;14.90;1.00
16479;DHT22;8350;52.316;10.530;2022-09-17T10:08:27;15.00;1.00
16479;DHT22;8350;52.316;10.530;2022-09-17T10:10:57;15.10;1.00
16479;DHT22;8350;52.316;10.530;2022-09-17T10:13:26;15.20;1.00
16479;DHT22;8350;52.316;10.530;2022-09-17T10:15:53;15.60;1.00
16479;DHT22;8350;52.316;10.530;2022-09-17T10:18:21;16.00;1.00
16479;DHT22;8350;52.316;10.530;2022-09-17T10:20:57;16.40;1.00
16479;DHT22;8350;52.316;10.530;2022-09-17T10:23:27;16.30;1.00
16479;DHT22;8350;52.316;10.530;2022-09-17T10:25:57;16.30;1.00
16479;DHT22;8350;52.316;10.530;2022-09-17T10:28:39;16.20;99.90
16479;DHT22;8350;52.316;10.530;2022-09-17T10:31:09;15.70;99.90
16479;DHT22;8350;52.316;10.530;2022-09-17T10:33:50;15.80;1.00
16479;DHT22;8350;52.316;10.530;2022-09-17T10:36:37;16.10;99.90
16479;DHT22;8350;52.316;10.530;2022-09-17T10:39:31;16.40;99.90
16479;DHT22;8350;52.316;10.530;2022-09-17T10:42:01;16.50;99.90
16479;DHT22;8350;52.316;10.530;2022-09-17T10:44:32;16.40;99.90
16479;DHT22;8350;52.316;10.530;2022-09-17T10:47:21;16.30;99.90
16479;DHT22;8350;52.316;10.530;2022-09-17T10:49:52;15.90;39.60
16479;DHT22;8350;52.316;10.530;2022-09-17T10:52:24;15.80;99.90
16479;DHT22;8350;52.316;10.530;2022-09-17T10:58:22;16.50;1.00
16479;DHT22;8350;52.316;10.530;2022-09-17T11:01:01;16.20;1.00
16479;DHT22;8350;52.316;10.530;2022-09-17T11:04:04;16.00;1.00
16479;DHT22;8350;52.316;10.530;2022-09-17T11:06:49;16.00;1.00
16479;DHT22;8350;52.316;10.530;2022-09-17T11:09:32;16.40;1.00
16479;DHT22;8350;52.316;10.530;2022-09-17T11:12:14;16.70;99.90
16479;DHT22;8350;52.316;10.530;2022-09-17T11:14:53;16.80;1.00
16479;DHT22;8350;52.316;10.530;2022-09-17T11:17:41;16.60;1.00
16479;DHT22;8350;52.316;10.530;2022-09-17T11:20:19;16.70;99.90
16479;DHT22;8350;52.316;10.530;2022-09-17T11:22:57;16.80;1.00
16479;DHT22;8350;52.316;10.530;2022-09-17T11:25:42;17.10;1.00
16479;DHT22;8350;52.316;10.530;2022-09-17T11:28:24;17.00;1.00
16479;DHT22;8350;52.316;10.530;2022-09-17T11:31:05;16.80;1.00
16479;DHT22;8350;52.316;10.530;2022-09-17T11:33:51;16.80;1.00
16479;DHT22;8350;52.316;10.530;2022-09-17T11:36:25;16.60;99.90
16479;DHT22;8350;52.316;10.530;2022-09-17T11:38:57;16.50;27.40
16479;DHT22;8350;52.316;10.530;2022-09-17T11:41:30;15.70;1.00
16479;DHT22;8350;52.316;10.530;2022-09-17T11:44:07;14.80;1.00
16479;DHT22;8350;52.316;10.530;2022-09-17T11:46:40;14.40;1.00
16479;DHT22;8350;52.316;10.530;2022-09-17T11:49:22;14.00;1.00
16479;DHT22;8350;52.316;10.530;2022-09-17T11:51:54;13.70;1.00
16479;DHT22;8350;52.316;10.530;2022-09-17T11:54:24;12.90;78.20
16479;DHT22;8350;52.316;10.530;2022-09-17T11:56:58;12.80;99.90
16479;DHT22;8350;52.316;10.530;2022-09-17T11:59:33;12.60;99.90
16479;DHT22;8350;52.316;10.530;2022-09-17T12:02:09;12.50;99.90
16479;DHT22;8350;52.316;10.530;2022-09-17T12:04:43;12.30;99.90
16479;DHT22;8350;52.316;10.530;2022-09-17T12:07:23;12.20;99.90
16479;DHT22;8350;52.316;10.530;2022-09-17T12:09:56;11.70;99.90
16479;DHT22;8350;52.316;10.530;2022-09-17T12:12:25;11.20;99.90
16479;DHT22;8350;52.316;10.530;2022-09-17T12:14:57;10.90;99.90
16479;DHT22;8350;52.316;10.530;2022-09-17T12:17:33;10.90;99.90
16479;DHT22;8350;52.316;10.530;2022-09-17T12:20:06;10.80;99.90
16479;DHT22;8350;52.316;10.530;2022-09-17T12:22:37;10.80;99.90
16479;DHT22;8350;52.316;10.530;2022-09-17T12:25:11;10.80;99.90
16479;DHT22;8350;52.316;10.530;2022-09-17T12:27:42;11.00;99.90
16479;DHT22;8350;52.316;10.530;2022-09-17T12:30:16;11.10;99.90
16479;DHT22;8350;52.316;10.530;2022-09-17T12:33:17;11.10;99.90
16479;DHT22;8350;52.316;10.530;2022-09-17T12:36:16;11.10;99.90
16479;DHT22;8350;52.316;10.530;2022-09-17T12:39:11;11.10;99.90
16479;DHT22;8350;52.316;10.530;2022-09-17T12:41:46;11.20;99.90
16479;DHT22;8350;52.316;10.530;2022-09-17T12:44:27;11.10;99.90
16479;DHT22;8350;52.316;10.530;2022-09-17T12:47:13;11.10;99.90
16479;DHT22;8350;52.316;10.530;2022-09-17T12:50:03;11.10;99.90
16479;DHT22;8350;52.316;10.530;2022-09-17T12:52:43;11.00;99.90
16479;DHT22;8350;52.316;10.530;2022-09-17T12:55:24;10.90;99.90
16479;DHT22;8350;52.316;10.530;2022-09-17T12:58:00;10.90;99.90
16479;DHT22;8350;52.316;10.530;2022-09-17T13:00:36;10.90;99.90
16479;DHT22;8350;52.316;10.530;2022-09-17T13:03:12;10.80;99.90
16479;DHT22;8350;52.316;10.530;2022-09-17T13:06:05;10.80;99.90
16479;DHT22;8350;52.316;10.530;2022-09-17T13:09:22;10.80;99.90
16479;DHT22;8350;52.316;10.530;2022-09-17T13:12:20;10.70;99.90
16479;DHT22;8350;52.316;10.530;2022-09-17T13:15:08;10.60;99.90
16479;DHT22;8350;52.316;10.530;2022-09-17T13:17:50;10.60;99.90
16479;DHT22;8350;52.316;10.530;2022-09-17T13:20:25;10.60;99.90
16479;DHT22;8350;52.316;10.530;2022-09-17T13:22:56;10.60;99.90
16479;DHT22;8350;52.316;10.530;2022-09-17T13:25:24;10.60;99.90
16479;DHT22;8350;52.316;10.530;2022-09-17T13:28:03;10.60;99.90
16479;DHT22;8350;52.316;10.530;2022-09-17T13:30:54;10.70;99.90
16479;DHT22;8350;52.316;10.530;2022-09-17T13:33:53;10.70;99.90
16479;DHT22;8350;52.316;10.530;2022-09-17T13:36:37;10.60;99.90
16479;DHT22;8350;52.316;10.530;2022-09-17T13:39:07;10.70;99.90
16479;DHT22;8350;52.316;10.530;2022-09-17T13:41:37;10.70;99.90
16479;DHT22;8350;52.316;10.530;2022-09-17T13:44:06;10.60;99.90
16479;DHT22;8350;52.316;10.530;2022-09-17T13:46:35;10.60;99.90
16479;DHT22;8350;52.316;10.530;2022-09-17T13:49:10;10.50;99.90
16479;DHT22;8350;52.316;10.530;2022-09-17T13:51:47;10.50;99.90
16479;DHT22;8350;52.316;10.530;2022-09-17T13:54:18;10.50;99.90
16479;DHT22;8350;52.316;10.530;2022-09-17T13:56:50;10.40;99.90
16479;DHT22;8350;52.316;10.530;2022-09-17T13:59:28;10.40;99.90
16479;DHT22;8350;52.316;10.530;2022-09-17T14:08:25;10.30;99.90
16479;DHT22;8350;52.316;10.530;2022-09-17T14:10:56;10.30;99.90
16479;DHT22;8350;52.316;10.530;2022-09-17T14:13:39;10.40;99.90
16479;DHT22;8350;52.316;10.530;2022-09-17T14:19:27;10.50;99.90
16479;DHT22;8350;52.316;10.530;2022-09-17T14:22:00;10.60;99.90
16479;DHT22;8350;52.316;10.530;2022-09-17T14:24:35;10.50;99.90
16479;DHT22;8350;52.316;10.530;2022-09-17T14:27:13;10.50;99.90
16479;DHT22;8350;52.316;10.530;2022-09-17T14:30:14;10.60;99.90
16479;DHT22;8350;52.316;10.530;2022-09-17T14:32:47;10.50;99.90
16479;DHT22;8350;52.316;10.530;2022-09-17T14:35:23;10.60;99.90
16479;DHT22;8350;52.316;10.530;2022-09-17T14:37:55;10.50;99.90
16479;DHT22;8350;52.316;10.530;2022-09-17T14:40:24;10.40;99.90
16479;DHT22;8350;52.316;10.530;2022-09-17T14:43:02;10.30;99.90
16479;DHT22;8350;52.316;10.530;2022-09-17T14:45:40;10.40;99.90
16479;DHT22;8350;52.316;10.530;2022-09-17T14:48:27;10.40;99.90
16479;DHT22;8350;52.316;10.530;2022-09-17T14:54:21;10.40;99.90
16479;DHT22;8350;52.316;10.530;2022-09-17T14:57:15;10.40;99.90
16479;DHT22;8350;52.316;10.530;2022-09-17T14:59:49;10.40;99.90
16479;DHT22;8350;52.316;10.530;2022-09-17T15:02:35;10.40;99.90
16479;DHT22;8350;52.316;10.530;2022-09-17T15:05:16;10.40;99.90
16479;DHT22;8350;52.316;10.530;2022-09-17T15:07:43;10.50;99.90
16479;DHT22;8350;52.316;10.530;2022-09-17T15:10:14;10.50;99.90
16479;DHT22;8350;52.316;10.530;2022-09-17T15:12:42;10.40;99.90
16479;DHT22;8350;52.316;10.530;2022-09-17T15:15:17;10.40;99.90
16479;DHT22;8350;52.316;10.530;2022-09-17T15:17:45;10.50;99.90
16479;DHT22;8350;52.316;10.530;2022-09-17T15:20:16;10.40;99.90
16479;DHT22;8350;52.316;10.530;2022-09-17T15:22:46;10.50;99.90
16479;DHT22;8350;52.316;10.530;2022-09-17T15:25:17;10.50;99.90
16479;DHT22;8350;52.316;10.530;2022-09-17T15:27:49;10.40;99.90
16479;DHT22;8350;52.316;10.530;2022-09-17T15:30:20;10.50;99.90
16479;DHT22;8350;52.316;10.530;2022-09-17T15:32:52;10.50;99.90
16479;DHT22;8350;52.316;10.530;2022-09-17T15:35:24;10.40;99.90
16479;DHT22;8350;52.316;10.530;2022-09-17T15:37:56;10.40;99.90
16479;DHT22;8350;52.316;10.530;2022-09-17T15:40:27;10.40;99.90
16479;DHT22;8350;52.316;10.530;2022-09-17T15:43:02;10.50;99.90
16479;DHT22;8350;52.316;10.530;2022-09-17T15:45:33;10.50;99.90
16479;DHT22;8350;52.316;10.530;2022-09-17T15:48:04;10.60;99.90
16479;DHT22;8350;52.316;10.530;2022-09-17T15:50:33;10.60;99.90
16479;DHT22;8350;52.316;10.530;2022-09-17T15:53:13;10.50;99.90
16479;DHT22;8350;52.316;10.530;2022-09-17T15:56:01;10.50;99.90
16479;DHT22;8350;52.316;10.530;2022-09-17T15:58:33;10.50;99.90
16479;DHT22;8350;52.316;10.530;2022-09-17T16:04:24;10.50;99.90
16479;DHT22;8350;52.316;10.530;2022-09-17T16:09:48;10.30;99.90
16479;DHT22;8350;52.316;10.530;2022-09-17T16:12:17;10.30;99.90
16479;DHT22;8350;52.316;10.530;2022-09-17T16:14:48;10.30;99.90
16479;DHT22;8350;52.316;10.530;2022-09-17T16:17:25;10.30;99.90
16479;DHT22;8350;52.316;10.530;2022-09-17T16:19:54;10.30;99.90
16479;DHT22;8350;52.316;10.530;2022-09-17T16:22:22;10.30;99.90
16479;DHT22;8350;52.316;10.530;2022-09-17T16:24:50;10.20;99.90
16479;DHT22;8350;52.316;10.530;2022-09-17T16:27:21;10.30;99.90
16479;DHT22;8350;52.316;10.530;2022-09-17T16:29:50;10.30;99.90
16479;DHT22;8350;52.316;10.530;2022-09-17T16:32:17;10.20;99.90